Time;durP1;ratioP1;P1;durP2;ratioP2;P2;SDS_P1;SDS_P2;PMS_P1;PMS_P2;Temp;Humidity;BMP_temperature;BMP_pressure;BME280_temperature;BME280_humidity;BME280_pressure;Samples;Min_cycle;Max_cycle;Signal;HPM_P1;HPM_P2
2023/01/29 00:01:19;;;;;;;;;;;;;;;;;;5019716;28;19932;-86
2023/01/29 00:03:45;;;;;;;;;;;;;;;0.07;100.00;66788.06;5019899;28;19917;-86
2023/01/29 00:06:11;;;;;;;;;;;;;;;0.07;100.00;66782.81;5021341;28;19925;-86
2023/01/29 00:08:37;;;;;;;;;;;;;;;0.08;100.00;66791.22;5022011;28;19960;-86
2023/01/29 00:11:02;;;;;;;;;;;;;;;;;;5021979;28;20409;-86
2023/01/29 00:13:27;;;;;;;;;;;;;;;0.08;100.00;66789.16;5038694;28;20305;-86
2023/01/29 00:15:53;;;;;;;;;;;;;;;;;;5033734;28;20399;-86
2023/01/29 00:18:18;;;;;;;;;;;;;;;0.05;100.00;66791.03;5023222;28;20032;-86
2023/01/29 00:20:44;;;;;;;;;;;;;;;0.04;100.00;66786.75;5017820;28;19971;-86
2023/01/29 00:23:09;;;;;;;;;;;;;;;0.04;100.00;66784.69;5021799;28;19925;-86
2023/01/29 00:25:34;;;;;;;;;;;;;;;0.05;100.00;66785.25;5021254;28;19979;-86
2023/01/29 00:27:59;;;;;;;;;;;;;;;;;;5022660;28;19917;-86
2023/01/29 00:30:24;;;;;;;;;;;;;;;0.08;100.00;66791.78;5038174;28;19921;-85
2023/01/29 00:32:50;;;;;;;;;;;;;;;0.07;100.00;66787.50;5021063;28;19917;-86
2023/01/29 00:35:15;;;;;;;;;;;;;;;;;;5019474;28;19920;-86
2023/01/29 00:37:40;;;;;;;;;;;;;;;0.08;100.00;66789.16;5021395;28;19918;-86
2023/01/29 00:40:06;;;;;;;;;;;;;;;0.07;100.00;66782.81;5021413;28;19929;-86
2023/01/29 00:45:15;;;;;;;;;;;;;;;0.01;100.00;66781.31;5021262;28;19971;-86
2023/01/29 00:47:40;;;;;;;;;;;;;;;0.07;100.00;66788.06;5022510;28;20386;-86
2023/01/29 00:50:07;;;;;;;;;;;;;;;0.07;100.00;66788.06;5021571;28;19925;-86
2023/01/29 00:52:32;;;;;;;;;;;;;;;0.07;100.00;66788.06;5022959;28;20429;-86
2023/01/29 00:54:59;;;;;;;;;;;;;;;0.09;100.00;66789.75;5021779;28;19999;-86
2023/01/29 00:57:25;;;;;;;;;;;;;;;0.08;100.00;66794.41;5020097;28;20358;-86
2023/01/29 00:59:51;;;;;;;;;;;;;;;0.09;100.00;66789.75;5035475;28;19937;-86
2023/01/29 01:05:04;;;;;;;;;;;;;;;0.11;100.00;66792.53;5019058;28;20290;-86
2023/01/29 01:07:30;;;;;;;;;;;;;;;0.09;100.00;66784.50;5021812;28;19917;-86
2023/01/29 01:12:39;;;;;;;;;;;;;;;0.04;100.00;66787.28;5036352;28;19924;-86
2023/01/29 01:15:04;;;;;;;;;;;;;;;0.07;100.00;66790.66;5025083;28;19921;-86
2023/01/29 01:17:29;;;;;;;;;;;;;;;0.10;100.00;66785.63;5025153;28;19917;-87
2023/01/29 01:19:55;;;;;;;;;;;;;;;0.06;100.00;66786.94;5025281;28;19917;-86
2023/01/29 01:22:20;;;;;;;;;;;;;;;0.04;100.00;66787.28;5026289;28;19974;-86
2023/01/29 01:24:45;;;;;;;;;;;;;;;0.05;100.00;66785.78;5024820;28;19944;-86
2023/01/29 01:27:11;;;;;;;;;;;;;;;0.08;100.00;66789.16;5023736;28;19932;-86
2023/01/29 01:29:36;;;;;;;;;;;;;;;0.08;100.00;66789.16;5025198;28;19933;-86
2023/01/29 01:32:02;;;;;;;;;;;;;;;0.05;100.00;66785.25;5025076;28;19917;-86
2023/01/29 01:34:27;;;;;;;;;;;;;;;;;;5025572;28;20402;-86
2023/01/29 01:36:53;;;;;;;;;;;;;;;0.07;100.00;66787.50;5024336;28;19924;-86
2023/01/29 01:39:18;;;;;;;;;;;;;;;0.07;100.00;66788.06;5025527;28;19932;-86
2023/01/29 01:41:45;;;;;;;;;;;;;;;0.08;100.00;66789.16;5024719;28;19917;-86
2023/01/29 01:44:10;;;;;;;;;;;;;;;;;;5024836;28;19921;-86
2023/01/29 01:46:36;;;;;;;;;;;;;;;0.08;100.00;66788.59;5025394;28;19978;-86
2023/01/29 01:49:01;;;;;;;;;;;;;;;;;;5026766;28;19956;-86
2023/01/29 01:51:26;;;;;;;;;;;;;;;;;;5026226;28;19925;-86
2023/01/29 01:54:03;;;;;;;;;;;;;;;0.04;100.00;66784.69;5023090;28;20004;-86
2023/01/29 01:56:39;;;;;;;;;;;;;;;;;;5017569;28;19921;-86
2023/01/29 01:59:04;;;;;;;;;;;;;;;;;;5024865;28;19932;-84
2023/01/29 02:01:29;;;;;;;;;;;;;;;0.07;100.00;66782.81;5027963;28;19921;-86
2023/01/29 02:09:33;;;;;;;;;;;;;;;;;;5027490;28;20353;-86
2023/01/29 02:11:58;;;;;;;;;;;;;;;0.06;100.00;66786.94;5026915;28;19921;-86
2023/01/29 02:14:24;;;;;;;;;;;;;;;;;;5025771;28;20434;-86
2023/01/29 02:16:49;;;;;;;;;;;;;;;;;;5027746;28;20385;-86
2023/01/29 02:19:31;;;;;;;;;;;;;;;0.06;100.00;66781.69;5028958;28;19964;-86
2023/01/29 02:22:05;;;;;;;;;;;;;;;0.04;100.00;66779.44;5029145;28;19994;-86
2023/01/29 02:24:30;;;;;;;;;;;;;;;;;;5024305;28;19917;-86
2023/01/29 02:26:55;;;;;;;;;;;;;;;0.04;100.00;66787.28;5023929;28;19995;-86
2023/01/29 02:29:24;;;;;;;;;;;;;;;0.03;100.00;66783.56;5024381;28;19924;-86
2023/01/29 02:32:08;;;;;;;;;;;;;;;0.03;100.00;66783.56;5027427;28;19968;-85
2023/01/29 02:37:20;;;;;;;;;;;;;;;0.03;100.00;66783.56;5024541;28;19923;-86
2023/01/29 02:39:50;;;;;;;;;;;;;;;0.02;100.00;66782.44;5026540;28;20003;-86
2023/01/29 02:42:26;;;;;;;;;;;;;;;0.03;100.00;66782.97;5025214;28;19979;-85
2023/01/29 02:44:58;;;;;;;;;;;;;;;0.01;100.00;66781.31;5026690;28;19921;-85
2023/01/29 02:47:23;;;;;;;;;;;;;;;;;;5021489;28;19960;-86
2023/01/29 02:49:51;;;;;;;;;;;;;;;0.02;100.00;66782.44;5026805;28;19956;-86
2023/01/29 02:52:18;;;;;;;;;;;;;;;0.02;100.00;66782.44;5027647;28;20478;-85
2023/01/29 02:54:43;;;;;;;;;;;;;;;;;;5027054;28;19917;-86
2023/01/29 02:57:09;;;;;;;;;;;;;;;;;;5026538;28;19917;-86
2023/01/29 02:59:38;;;;;;;;;;;;;;;-0.07;100.00;66772.31;5026745;28;20002;-86
2023/01/29 03:02:09;;;;;;;;;;;;;;;-0.06;100.00;66774.00;5024827;28;19917;-87
2023/01/29 03:04:37;;;;;;;;;;;;;;;-0.07;100.00;66772.31;5021088;28;19918;-87
2023/01/29 03:07:05;;;;;;;;;;;;;;;-0.07;100.00;66772.31;5025584;28;19953;-86
2023/01/29 03:09:30;;;;;;;;;;;;;;;-0.07;100.00;66772.88;5025843;28;20057;-87
2023/01/29 03:11:58;;;;;;;;;;;;;;;-0.08;100.00;66773.81;5022741;28;20012;-87
2023/01/29 03:15:10;;;;;;;;;;;;;;;-0.08;100.00;66774.38;5026655;28;19917;-86
2023/01/29 03:17:14;;;;;;;;;;;;;;;;;;5022676;28;19937;-87
2023/01/29 03:19:41;;;;;;;;;;;;;;;-0.06;100.00;66776.03;5026274;28;19921;-86
2023/01/29 03:22:08;;;;;;;;;;;;;;;-0.06;100.00;66773.44;5026355;28;19923;-87
2023/01/29 03:33:09;;;;;;;;;;;;;;;-0.08;100.00;66779.59;5024449;28;19942;-87
2023/01/29 03:35:38;;;;;;;;;;;;;;;-0.06;100.00;66773.44;5022573;28;19917;-87
2023/01/29 03:38:04;;;;;;;;;;;;;;;-0.07;100.00;66772.31;5022966;28;19917;-86
2023/01/29 03:40:29;;;;;;;;;;;;;;;;;;5027571;28;20306;-86
2023/01/29 03:42:55;;;;;;;;;;;;;;;-0.10;100.00;66769.50;5024005;28;20331;-89
2023/01/29 03:45:26;;;;;;;;;;;;;;;-0.11;100.00;66767.81;5026075;28;19918;-86
2023/01/29 03:48:03;;;;;;;;;;;;;;;-0.12;100.00;66766.69;5026311;28;19940;-86
2023/01/29 03:50:47;;;;;;;;;;;;;;;-0.14;100.00;66765.00;5050839;28;19925;-87
2023/01/29 03:53:13;;;;;;;;;;;;;;;-0.14;100.00;66764.44;5026515;28;20416;-87
2023/01/29 03:55:54;;;;;;;;;;;;;;;-0.15;100.00;66763.88;5026219;28;19924;-86
2023/01/29 03:58:22;;;;;;;;;;;;;;;-0.16;100.00;66765.38;5019852;28;19925;-86
2023/01/29 04:00:56;;;;;;;;;;;;;;;-0.17;100.00;66761.06;5026580;28;20015;-87
2023/01/29 04:03:31;;;;;;;;;;;;;;;-0.20;100.00;66757.69;5020448;28;19917;-86
2023/01/29 04:06:04;;;;;;;;;;;;;;;;;;5025701;28;19979;-87
2023/01/29 04:08:32;;;;;;;;;;;;;;;-0.20;100.00;66758.25;5026018;28;19959;-87
2023/01/29 04:11:00;;;;;;;;;;;;;;;-0.21;100.00;66756.56;5023187;28;19964;-86
2023/01/29 04:13:25;;;;;;;;;;;;;;;-0.24;100.00;66756.94;5024433;28;19917;-86
2023/01/29 04:15:51;;;;;;;;;;;;;;;;;;5025115;28;19924;-86
2023/01/29 04:18:16;;;;;;;;;;;;;;;-0.27;100.00;66753.56;5024775;28;20561;-87
2023/01/29 04:20:41;;;;;;;;;;;;;;;;;;5019569;28;20460;-86
2023/01/29 04:23:17;;;;;;;;;;;;;;;-0.27;100.00;66750.38;5024318;28;20123;-86
2023/01/29 04:25:45;;;;;;;;;;;;;;;-0.29;100.00;66748.72;5024196;28;19967;-87
2023/01/29 04:28:10;;;;;;;;;;;;;;;-0.28;100.00;66749.28;5023449;28;19921;-87
2023/01/29 04:30:47;;;;;;;;;;;;;;;-0.27;100.00;66753.56;5026999;28;19928;-87
2023/01/29 04:33:22;;;;;;;;;;;;;;;-0.28;100.00;66749.81;5023753;28;20013;-86
2023/01/29 04:36:06;;;;;;;;;;;;;;;-0.25;100.00;66755.81;5024465;28;19917;-87
2023/01/29 04:38:34;;;;;;;;;;;;;;;-0.29;100.00;66748.72;5023552;28;19917;-87
2023/01/29 04:41:08;;;;;;;;;;;;;;;-0.30;100.00;66747.56;5024056;28;20382;-87
2023/01/29 04:43:48;;;;;;;;;;;;;;;-0.32;100.00;66745.31;5031907;28;19917;-87
2023/01/29 04:46:16;;;;;;;;;;;;;;;-0.33;100.00;66738.97;5019901;28;19924;-86
2023/01/29 04:48:41;;;;;;;;;;;;;;;-0.32;100.00;66747.38;5027086;28;20450;-87
2023/01/29 04:51:15;;;;;;;;;;;;;;;-0.33;100.00;66744.19;5028250;28;19996;-87
2023/01/29 04:53:40;;;;;;;;;;;;;;;-0.35;100.00;66744.56;5027871;28;20356;-87
2023/01/29 04:56:05;;;;;;;;;;;;;;;-0.34;100.00;66743.09;5028205;28;20004;-87
2023/01/29 04:58:30;;;;;;;;;;;;;;;;;;5030908;28;19927;-86
2023/01/29 05:00:56;;;;;;;;;;;;;;;-0.32;100.00;66745.31;5026879;28;19957;-87
2023/01/29 05:03:24;;;;;;;;;;;;;;;-0.34;100.00;66742.53;5022621;28;19917;-87
2023/01/29 05:05:50;;;;;;;;;;;;;;;-0.35;100.00;66741.38;5028888;28;19952;-86
2023/01/29 05:08:17;;;;;;;;;;;;;;;-0.32;100.00;66747.38;5030139;28;20390;-87
2023/01/29 05:10:44;;;;;;;;;;;;;;;-0.34;100.00;66743.09;5024925;28;19921;-87
2023/01/29 05:13:12;;;;;;;;;;;;;;;-0.33;100.00;66743.66;5027353;28;19917;-86
2023/01/29 05:15:40;;;;;;;;;;;;;;;-0.37;100.00;66742.34;5028675;28;20027;-88
2023/01/29 05:18:07;;;;;;;;;;;;;;;-0.37;100.00;66744.38;5029406;28;19917;-87
2023/01/29 05:20:33;;;;;;;;;;;;;;;;;;5029910;28;19924;-86
2023/01/29 05:22:58;;;;;;;;;;;;;;;-0.38;100.00;66738.56;5029821;28;19925;-87
2023/01/29 05:25:25;;;;;;;;;;;;;;;-0.37;100.00;66739.16;5026772;28;20299;-86
2023/01/29 05:28:10;;;;;;;;;;;;;;;-0.35;100.00;66744.56;5029233;28;20700;-87
2023/01/29 05:30:36;;;;;;;;;;;;;;;-0.38;100.00;66738.03;5036679;28;19925;-87
2023/01/29 05:33:02;;;;;;;;;;;;;;;-0.38;100.00;66738.56;5026929;28;19921;-86
2023/01/29 05:35:28;;;;;;;;;;;;;;;-0.41;100.00;66737.25;5024924;28;19979;-87
2023/01/29 05:37:56;;;;;;;;;;;;;;;-0.41;100.00;66740.44;5028849;28;19932;-86
2023/01/29 05:40:21;;;;;;;;;;;;;;;;;;5028344;28;19933;-86
2023/01/29 05:42:47;;;;;;;;;;;;;;;-0.43;100.00;66727.16;5027111;28;19928;-87
2023/01/29 05:45:12;;;;;;;;;;;;;;;;;;5027628;28;19961;-88
2023/01/29 05:47:37;;;;;;;;;;;;;;;-0.42;100.00;66734.09;5029127;28;19917;-88
2023/01/29 05:50:02;;;;;;;;;;;;;;;;;;5026673;28;19932;-86
2023/01/29 05:52:27;;;;;;;;;;;;;;;-0.45;100.00;66733.34;5027124;28;19917;-86
2023/01/29 05:54:53;;;;;;;;;;;;;;;-0.43;100.00;66732.97;5029129;28;19925;-86
2023/01/29 05:57:18;;;;;;;;;;;;;;;-0.44;100.00;66737.06;5016746;28;19921;-86
2023/01/29 05:59:43;;;;;;;;;;;;;;;-0.43;100.00;66732.97;5029169;28;19917;-86
2023/01/29 06:02:08;;;;;;;;;;;;;;;-0.43;100.00;66735.59;5027988;28;19918;-87
2023/01/29 06:04:34;;;;;;;;;;;;;;;-0.45;100.00;66733.34;5025338;28;19924;-88
2023/01/29 06:07:02;;;;;;;;;;;;;;;-0.44;100.00;66734.44;5026458;28;19967;-86
2023/01/29 06:09:27;;;;;;;;;;;;;;;-0.48;100.00;66729.97;5028418;28;20373;-87
2023/01/29 06:11:52;;;;;;;;;;;;;;;;;;5024330;28;20024;-87
2023/01/29 06:14:17;;;;;;;;;;;;;;;-0.42;100.00;66734.09;5023178;28;20131;-87
2023/01/29 06:16:42;;;;;;;;;;;;;;;-0.44;100.00;66731.28;5026605;28;21017;-87
2023/01/29 06:19:08;;;;;;;;;;;;;;;;;;5028167;28;20353;-87
2023/01/29 06:21:33;;;;;;;;;;;;;;;-0.42;100.00;66734.09;5026407;28;19925;-87
2023/01/29 06:23:58;;;;;;;;;;;;;;;-0.43;100.00;66732.41;5027430;28;19923;-87
2023/01/29 06:26:23;;;;;;;;;;;;;;;-0.45;100.00;66730.72;5027526;28;20457;-87
2023/01/29 06:28:49;;;;;;;;;;;;;;;-0.46;100.00;66740.06;5028480;28;20439;-87
2023/01/29 06:31:14;;;;;;;;;;;;;;;-0.44;100.00;66731.84;5024999;28;19951;-87
2023/01/29 06:33:39;;;;;;;;;;;;;;;-0.40;100.00;66735.75;5028715;28;19921;-88
2023/01/29 06:36:05;;;;;;;;;;;;;;;-0.41;100.00;66737.81;5021416;28;19917;-87
2023/01/29 06:38:30;;;;;;;;;;;;;;;-0.43;100.00;66732.97;5027929;28;19924;-86
2023/01/29 06:40:56;;;;;;;;;;;;;;;-0.42;100.00;66733.53;5025014;28;19924;-87
2023/01/29 06:43:22;;;;;;;;;;;;;;;-0.40;100.00;66741.00;5024022;28;19917;-87
2023/01/29 06:45:51;;;;;;;;;;;;;;;-0.41;100.00;66737.81;5022760;28;19943;-86
2023/01/29 06:48:17;;;;;;;;;;;;;;;-0.40;100.00;66736.34;5022534;28;19948;-86
2023/01/29 06:50:42;;;;;;;;;;;;;;;;;;5028047;28;19952;-87
2023/01/29 06:53:07;;;;;;;;;;;;;;;-0.45;100.00;66733.34;5026354;28;19928;-88
2023/01/29 06:55:32;;;;;;;;;;;;;;;;;;5026418;28;20421;-86
2023/01/29 06:57:58;;;;;;;;;;;;;;;-0.42;100.00;66728.88;5029694;28;19921;-87
2023/01/29 07:00:23;;;;;;;;;;;;;;;;;;5022997;28;19918;-88
2023/01/29 07:02:48;;;;;;;;;;;;;;;;;;5024488;28;19967;-87
2023/01/29 07:05:14;;;;;;;;;;;;;;;-0.39;100.00;66740.06;5023335;28;19946;-86
2023/01/29 07:07:39;;;;;;;;;;;;;;;-0.39;100.00;66740.06;5026163;28;19956;-88
2023/01/29 07:10:04;;;;;;;;;;;;;;;;;;5020352;28;19975;-86
2023/01/29 07:12:29;;;;;;;;;;;;;;;;;;5030442;28;19923;-86
2023/01/29 07:14:54;;;;;;;;;;;;;;;;;;5025479;28;19925;-86
2023/01/29 07:17:20;;;;;;;;;;;;;;;-0.42;100.00;66734.09;5025956;28;19921;-87
2023/01/29 07:19:45;;;;;;;;;;;;;;;-0.41;100.00;66729.41;5020287;28;19918;-87
2023/01/29 07:22:10;;;;;;;;;;;;;;;-0.39;100.00;66736.91;5023791;28;20412;-86
2023/01/29 07:24:35;;;;;;;;;;;;;;;-0.41;100.00;66734.66;5027460;28;19917;-87
2023/01/29 07:27:01;;;;;;;;;;;;;;;-0.41;100.00;66734.66;5027379;28;19918;-87
2023/01/29 07:29:26;;;;;;;;;;;;;;;-0.42;100.00;66736.72;5025491;28;20008;-86
2023/01/29 07:31:51;;;;;;;;;;;;;;;-0.40;100.00;66735.75;5025733;28;19956;-87
2023/01/29 07:34:16;;;;;;;;;;;;;;;-0.41;100.00;66735.22;5026047;28;19917;-86
2023/01/29 07:36:42;;;;;;;;;;;;;;;;;;5023370;28;19917;-88
2023/01/29 07:39:07;;;;;;;;;;;;;;;-0.38;100.00;66743.25;5026636;28;19921;-86
2023/01/29 07:41:32;;;;;;;;;;;;;;;-0.38;100.00;66740.63;5026922;28;19917;-87
2023/01/29 07:43:57;;;;;;;;;;;;;;;-0.40;100.00;66731.13;5025762;28;19975;-86
2023/01/29 07:46:22;;;;;;;;;;;;;;;-0.37;100.00;66744.94;5025891;28;20396;-86
2023/01/29 07:48:48;;;;;;;;;;;;;;;;;;5025524;28;19980;-85
2023/01/29 07:51:13;;;;;;;;;;;;;;;-0.36;100.00;66743.44;5025982;28;20367;-85
2023/01/29 07:53:38;;;;;;;;;;;;;;;-0.35;100.00;66741.38;5025067;28;19925;-85
2023/01/29 07:56:04;;;;;;;;;;;;;;;-0.36;100.00;66740.28;5019443;28;19929;-85
2023/01/29 07:58:29;;;;;;;;;;;;;;;-0.34;100.00;66742.53;5019734;28;19971;-85
2023/01/29 08:00:54;;;;;;;;;;;;;;;-0.30;100.00;66747.56;5026853;28;19928;-85
2023/01/29 08:03:20;;;;;;;;;;;;;;;-0.31;100.00;66746.47;5026197;28;19940;-85
2023/01/29 08:05:45;;;;;;;;;;;;;;;;;;5025563;28;19947;-85
2023/01/29 08:08:10;;;;;;;;;;;;;;;;;;5027962;28;19944;-85
2023/01/29 08:10:35;;;;;;;;;;;;;;;-0.29;100.00;66748.72;5027269;28;20313;-85
2023/01/29 08:13:01;;;;;;;;;;;;;;;-0.29;100.00;66748.72;5026352;28;19917;-85
2023/01/29 08:15:27;;;;;;;;;;;;;;;-0.28;100.00;66749.81;5026835;28;19933;-85
2023/01/29 08:17:52;;;;;;;;;;;;;;;-0.22;100.00;66755.44;5027517;28;19921;-84
2023/01/29 08:20:18;;;;;;;;;;;;;;;-0.26;100.00;66752.09;5028899;28;20452;-84
2023/01/29 08:22:43;;;;;;;;;;;;;;;-0.25;100.00;66753.19;5029814;28;19917;-84
2023/01/29 08:25:08;;;;;;;;;;;;;;;;;;5027382;28;19921;-84
2023/01/29 08:27:34;;;;;;;;;;;;;;;-0.20;100.00;66757.69;5027514;28;19939;-84
2023/01/29 08:29:59;;;;;;;;;;;;;;;;;;5025135;28;20009;-84
2023/01/29 08:32:24;;;;;;;;;;;;;;;-0.18;100.00;66759.94;5030569;28;20309;-85
2023/01/29 08:34:49;;;;;;;;;;;;;;;-0.16;100.00;66767.44;5032287;28;20291;-84
2023/01/29 08:37:15;;;;;;;;;;;;;;;-0.12;100.00;66766.69;5026982;28;20023;-83
2023/01/29 08:39:40;;;;;;;;;;;;;;;-0.13;100.00;66765.56;5039071;28;19920;-83
2023/01/29 08:42:07;;;;;;;;;;;;;;;-0.09;100.00;66770.63;5027879;28;20302;-82
2023/01/29 08:44:32;;;;;;;;;;;;;;;-0.03;100.00;66777.38;5030620;28;19964;-84
2023/01/29 08:46:57;;;;;;;;;;;;;;;-0.02;100.00;66778.50;5028269;28;19921;-84
2023/01/29 08:49:23;;;;;;;;;;;;;;;0.03;100.00;66785.59;5027255;28;19922;-84
2023/01/29 08:51:50;;;;;;;;;;;;;;;0.05;100.00;66787.84;5029479;28;19936;-84
2023/01/29 08:54:15;;;;;;;;;;;;;;;0.07;100.00;66792.72;5028082;28;19928;-83
2023/01/29 08:56:40;;;;;;;;;;;;;;;0.06;100.00;66792.16;5021922;28;19917;-84
2023/01/29 08:59:05;;;;;;;;;;;;;;;0.09;100.00;66789.75;5028416;28;19941;-83
2023/01/29 09:01:31;;;;;;;;;;;;;;;0.11;100.00;66791.97;5028802;28;19921;-85
2023/01/29 09:03:56;;;;;;;;;;;;;;;0.14;100.00;66801.16;5025566;28;19968;-85
2023/01/29 09:06:21;;;;;;;;;;;;;;;0.14;100.00;66795.91;5027520;28;20397;-85
2023/01/29 09:08:47;;;;;;;;;;;;;;;0.19;100.00;66800.97;5028818;28;20299;-85
2023/01/29 09:11:12;;;;;;;;;;;;;;;;;;5024861;28;20502;-85
2023/01/29 09:13:37;;;;;;;;;;;;;;;0.22;100.00;66804.34;5025306;28;19917;-85
2023/01/29 09:16:03;;;;;;;;;;;;;;;0.24;100.00;66800.81;5025295;28;19943;-84
2023/01/29 09:18:29;;;;;;;;;;;;;;;0.20;100.00;66797.44;5026020;28;21606;-85
2023/01/29 09:20:54;;;;;;;;;;;;;;;0.22;100.00;66804.91;5025692;28;19917;-84
2023/01/29 09:23:19;;;;;;;;;;;;;;;0.21;100.00;66798.56;5025675;28;19918;-84
2023/01/29 09:25:45;;;;;;;;;;;;;;;0.25;100.00;66812.97;5026685;28;20341;-85
2023/01/29 09:28:10;;;;;;;;;;;;;;;0.26;100.00;66808.28;5024715;28;19960;-84
2023/01/29 09:30:36;;;;;;;;;;;;;;;0.27;100.00;66809.41;5016182;28;20035;-84
2023/01/29 09:33:05;;;;;;;;;;;;;;;0.27;100.00;66814.66;5024859;28;19918;-84
2023/01/29 09:35:30;;;;;;;;;;;;;;;0.32;100.00;66815.59;5022906;28;19918;-84
2023/01/29 09:37:56;;;;;;;;;;;;;;;0.32;100.00;66815.59;5023779;28;19976;-84
2023/01/29 09:40:30;;;;;;;;;;;;;;;0.32;100.00;66817.66;5022523;28;19921;-84
2023/01/29 09:43:00;;;;;;;;;;;;;;;0.32;100.00;66815.06;5025911;28;19940;-85
2023/01/29 09:45:27;;;;;;;;;;;;;;;0.30;100.00;66813.34;5026631;28;19956;-84
2023/01/29 09:47:54;;;;;;;;;;;;;;;0.34;100.00;66817.28;5028022;28;19917;-84
2023/01/29 09:50:39;;;;;;;;;;;;;;;0.31;100.00;66814.47;5023204;28;19925;-83
2023/01/29 09:53:14;;;;;;;;;;;;;;;0.35;100.00;66818.97;5030554;28;19923;-83
2023/01/29 09:55:45;;;;;;;;;;;;;;;0.35;100.00;66818.97;5029480;28;19952;-85
2023/01/29 09:58:10;;;;;;;;;;;;;;;;;;5027077;28;19933;-84
2023/01/29 10:00:38;;;;;;;;;;;;;;;0.38;100.00;66822.34;5028430;28;19922;-84
2023/01/29 10:03:03;;;;;;;;;;;;;;;;;;5029765;28;20318;-84
2023/01/29 10:05:28;;;;;;;;;;;;;;;;;;5024639;28;20313;-84
2023/01/29 10:07:55;;;;;;;;;;;;;;;0.42;100.00;66821.06;5029716;28;19925;-84
2023/01/29 10:10:20;;;;;;;;;;;;;;;;;;5027774;28;19933;-84
2023/01/29 10:12:48;;;;;;;;;;;;;;;0.47;100.00;66831.34;5028105;28;19917;-83
2023/01/29 10:15:13;;;;;;;;;;;;;;;0.44;100.00;66831.72;5021276;28;19925;-84
2023/01/29 10:17:38;;;;;;;;;;;;;;;;;;5028941;28;20585;-84
2023/01/29 10:20:04;;;;;;;;;;;;;;;;;;5029778;28;19921;-84
2023/01/29 10:22:38;;;;;;;;;;;;;;;0.50;100.00;66834.72;5026628;28;19918;-84
2023/01/29 10:25:04;;;;;;;;;;;;;;;0.53;100.00;66841.28;5023035;28;19928;-85
2023/01/29 10:27:29;;;;;;;;;;;;;;;;;;5029024;28;19972;-84
2023/01/29 10:29:55;;;;;;;;;;;;;;;0.57;100.00;66843.16;5020564;28;19963;-84
2023/01/29 10:32:22;;;;;;;;;;;;;;;0.56;100.00;66842.03;5029321;28;19917;-84
2023/01/29 10:34:53;;;;;;;;;;;;;;;0.60;100.00;66845.97;5030603;28;19939;-84
2023/01/29 10:37:23;;;;;;;;;;;;;;;0.60;100.00;66846.53;5029040;28;19921;-84
2023/01/29 10:39:48;;;;;;;;;;;;;;;0.62;100.00;66848.78;5031023;28;20625;-85
2023/01/29 10:42:22;;;;;;;;;;;;;;;0.67;100.00;66853.84;5029495;28;19924;-85
2023/01/29 10:44:47;;;;;;;;;;;;;;;;;;5028192;28;19921;-84
2023/01/29 10:47:20;;;;;;;;;;;;;;;0.71;100.00;66860.41;5028485;28;19932;-85
2023/01/29 10:49:54;;;;;;;;;;;;;;;0.73;100.00;66860.03;5018069;28;20586;-85
2023/01/29 10:52:19;;;;;;;;;;;;;;;0.73;100.00;66854.81;5018815;28;19921;-84
2023/01/29 10:55:14;;;;;;;;;;;;;;;0.74;100.00;66864.34;5030807;28;20387;-84
2023/01/29 10:57:51;;;;;;;;;;;;;;;0.73;100.00;66860.59;5018270;28;19948;-84
2023/01/29 11:00:20;;;;;;;;;;;;;;;0.75;100.00;66862.28;5028299;28;19924;-84
2023/01/29 11:02:47;;;;;;;;;;;;;;;0.76;100.00;66863.41;5021745;28;19956;-85
2023/01/29 11:05:18;;;;;;;;;;;;;;;0.77;100.00;66864.53;5020260;28;19917;-84
2023/01/29 11:07:44;;;;;;;;;;;;;;;0.81;100.00;66869.03;5025346;28;19921;-86
2023/01/29 11:10:09;;;;;;;;;;;;;;;;;;5031561;28;19975;-84
2023/01/29 11:12:37;;;;;;;;;;;;;;;0.82;100.00;66870.72;5027651;28;19917;-84
2023/01/29 11:15:02;;;;;;;;;;;;;;;;;;5028629;28;19917;-84
2023/01/29 11:17:27;;;;;;;;;;;;;;;;;;5027304;28;19927;-84
2023/01/29 11:19:56;;;;;;;;;;;;;;;0.87;100.00;66875.78;5027022;28;20013;-85
2023/01/29 11:22:22;;;;;;;;;;;;;;;0.87;100.00;66875.78;5025414;28;19924;-84
2023/01/29 11:25:08;;;;;;;;;;;;;;;0.85;100.00;66876.16;5024318;28;20019;-85
2023/01/29 11:27:38;;;;;;;;;;;;;;;0.88;100.00;66880.09;5031329;28;19971;-86
2023/01/29 11:30:04;;;;;;;;;;;;;;;0.92;100.00;66881.41;5030239;28;19928;-85
2023/01/29 11:32:33;;;;;;;;;;;;;;;0.90;100.00;66881.78;5028841;28;20400;-83
2023/01/29 11:35:01;;;;;;;;;;;;;;;0.89;100.00;66880.66;5027089;28;19921;-86
2023/01/29 11:37:26;;;;;;;;;;;;;;;;;;5026684;28;19917;-84
2023/01/29 11:39:52;;;;;;;;;;;;;;;0.96;100.00;66885.91;5023088;28;19983;-84
2023/01/29 11:42:20;;;;;;;;;;;;;;;0.97;100.00;66886.47;5023971;28;19925;-84
2023/01/29 11:44:46;;;;;;;;;;;;;;;0.97;100.00;66887.03;5020548;28;19921;-84
2023/01/29 11:47:11;;;;;;;;;;;;;;;;;;5024989;28;19917;-84
2023/01/29 11:49:37;;;;;;;;;;;;;;;1.07;100.00;66900.91;5025649;28;19932;-84
2023/01/29 11:52:02;;;;;;;;;;;;;;;;;;5021765;28;19917;-84
2023/01/29 11:54:28;;;;;;;;;;;;;;;;;;5025953;28;19922;-85
2023/01/29 11:56:54;;;;;;;;;;;;;;;1.06;100.00;66899.78;5026479;28;19921;-85
2023/01/29 11:59:19;;;;;;;;;;;;;;;1.08;100.00;66899.41;5029364;28;19963;-85
2023/01/29 12:01:44;;;;;;;;;;;;;;;1.09;100.00;66903.19;5028823;28;20464;-84
2023/01/29 12:04:10;;;;;;;;;;;;;;;;;;5022652;28;19924;-83
2023/01/29 12:06:37;;;;;;;;;;;;;;;1.10;100.00;66901.69;5024768;28;20374;-84
2023/01/29 12:09:08;;;;;;;;;;;;;;;1.13;100.00;66905.06;5028952;28;19917;-85
2023/01/29 12:11:34;;;;;;;;;;;;;;;1.13;100.00;66904.50;5026917;28;19921;-84
2023/01/29 12:14:01;;;;;;;;;;;;;;;1.12;100.00;66903.34;5025023;28;19940;-85
2023/01/29 12:16:29;;;;;;;;;;;;;;;1.10;100.00;66904.28;5027064;28;20406;-85
2023/01/29 12:19:00;;;;;;;;;;;;;;;1.16;100.00;66907.31;5016150;28;20012;-84
2023/01/29 12:21:25;;;;;;;;;;;;;;;;;;5024938;28;19948;-83
2023/01/29 12:23:56;;;;;;;;;;;;;;;1.17;100.00;66908.44;5026463;28;19920;-84
2023/01/29 12:26:27;;;;;;;;;;;;;;;1.17;100.00;66908.97;5000021;28;19921;-85
2023/01/29 12:29:11;;;;;;;;;;;;;;;1.18;100.00;66912.16;5028501;28;19917;-84
2023/01/29 12:31:36;;;;;;;;;;;;;;;;;;5027535;28;20339;-84
2023/01/29 12:34:09;;;;;;;;;;;;;;;1.19;100.00;66905.44;5021372;28;20000;-84
2023/01/29 12:36:41;;;;;;;;;;;;;;;1.17;100.00;66908.44;5018481;28;19929;-84
2023/01/29 12:39:08;;;;;;;;;;;;;;;1.17;100.00;66908.44;5026649;28;19971;-84
2023/01/29 12:41:33;;;;;;;;;;;;;;;;;;5024781;28;19925;-84
2023/01/29 12:43:59;;;;;;;;;;;;;;;;;;5025459;28;20416;-84
2023/01/29 12:46:24;;;;;;;;;;;;;;;;;;5025303;28;19927;-84
2023/01/29 12:48:49;;;;;;;;;;;;;;;1.19;100.00;66913.84;5024858;28;19925;-84
2023/01/29 12:51:19;;;;;;;;;;;;;;;1.22;100.00;66916.69;5026901;28;19929;-84
2023/01/29 12:53:44;;;;;;;;;;;;;;;;;;5026323;28;19933;-84
2023/01/29 12:56:15;;;;;;;;;;;;;;;1.24;100.00;66919.50;5027195;28;19921;-85
2023/01/29 12:58:42;;;;;;;;;;;;;;;1.25;100.00;66917.44;5027347;28;19921;-84
2023/01/29 13:01:07;;;;;;;;;;;;;;;;;;5027454;28;20031;-85
2023/01/29 13:03:33;;;;;;;;;;;;;;;;;;5023986;28;19925;-84
2023/01/29 13:06:01;;;;;;;;;;;;;;;1.28;100.00;66916.13;5026211;28;19929;-86
2023/01/29 13:08:26;;;;;;;;;;;;;;;;;;5023783;28;19932;-84
2023/01/29 13:10:52;;;;;;;;;;;;;;;1.32;100.00;66925.88;5029051;28;19929;-84
2023/01/29 13:13:29;;;;;;;;;;;;;;;1.33;100.00;66927.00;5028042;28;19959;-84
2023/01/29 13:15:58;;;;;;;;;;;;;;;1.31;100.00;66929.44;5030800;28;19925;-85
2023/01/29 13:18:42;;;;;;;;;;;;;;;1.31;100.00;66924.75;5032855;28;19921;-84
2023/01/29 13:21:13;;;;;;;;;;;;;;;1.34;100.00;66928.13;5039756;28;20415;-84
2023/01/29 13:23:49;;;;;;;;;;;;;;;1.32;100.00;66925.88;5033031;28;19923;-86
2023/01/29 13:26:14;;;;;;;;;;;;;;;;;;5030298;28;19928;-84
2023/01/29 13:28:40;;;;;;;;;;;;;;;;;;5029190;28;20012;-84
2023/01/29 13:31:05;;;;;;;;;;;;;;;;;;5028868;28;19984;-85
2023/01/29 13:33:30;;;;;;;;;;;;;;;;;;5031103;28;19925;-85
2023/01/29 13:35:58;;;;;;;;;;;;;;;1.35;100.00;66929.25;5015753;28;20403;-85
2023/01/29 13:38:29;;;;;;;;;;;;;;;1.39;100.00;66935.25;5030472;28;19917;-84
2023/01/29 13:40:54;;;;;;;;;;;;;;;;;;5033735;28;19925;-84
2023/01/29 13:43:19;;;;;;;;;;;;;;;;;;5013087;28;19966;-84
2023/01/29 13:45:44;;;;;;;;;;;;;;;1.37;100.00;66930.94;5030905;28;20347;-84
2023/01/29 13:48:10;;;;;;;;;;;;;;;;;;5016340;28;19921;-85
2023/01/29 13:50:35;;;;;;;;;;;;;;;;;;5026863;28;19921;-85
2023/01/29 13:53:01;;;;;;;;;;;;;;;1.38;100.00;66932.06;5031744;28;19917;-85